createdAt,value
2018-07-27T19:45:01.288Z,14.33
2018-07-27T19:47:30.147Z,22.33
2018-07-27T19:50:38.063Z,22.33
2018-07-27T19:53:07.088Z,20.30
2018-07-27T19:55:37.294Z,11.33
2018-07-27T19:58:07.833Z,8.73
2018-07-27T20:00:36.680Z,8.57
2018-07-27T20:03:05.768Z,9.07
2018-07-27T20:05:34.675Z,9.50
2018-07-27T20:08:03.544Z,10.73
2018-07-27T20:10:32.386Z,9.83
2018-07-27T20:13:02.628Z,10.57
2018-07-27T20:15:31.567Z,10.23
2018-07-27T20:18:00.394Z,11.47
2018-07-27T20:20:30.496Z,10.80
2018-07-27T20:23:00.675Z,10.37
2018-07-27T20:25:29.507Z,10.93
2018-07-27T20:27:58.528Z,10.70
2018-07-27T20:30:27.559Z,11.00
2018-07-27T20:32:56.469Z,12.23
2018-07-27T20:35:25.300Z,11.03
2018-07-27T20:37:54.731Z,13.43
2018-07-27T20:40:23.560Z,13.03
2018-07-27T20:42:52.442Z,14.57
2018-07-27T20:45:21.548Z,14.70
2018-07-27T20:47:50.375Z,14.83
2018-07-27T20:50:19.312Z,15.80
2018-07-27T20:52:48.180Z,15.10
2018-07-27T20:55:18.280Z,15.47
2018-07-27T20:57:47.196Z,14.83
2018-07-27T21:00:16.016Z,15.77
2018-07-27T21:02:45.553Z,15.63
2018-07-27T21:05:15.276Z,15.67
2018-07-27T21:07:44.303Z,15.77
2018-07-27T21:10:13.908Z,16.07
2018-07-27T21:12:44.803Z,15.30
2018-07-27T21:15:13.610Z,16.87
2018-07-27T21:17:42.422Z,16.60
2018-07-27T21:20:11.296Z,16.47
2018-07-27T21:22:40.111Z,16.43
2018-07-27T21:25:09.060Z,16.87
2018-07-27T21:27:37.883Z,17.00
2018-07-27T21:30:08.295Z,16.83
2018-07-27T21:32:37.081Z,17.37
2018-07-27T21:35:05.989Z,19.30
2018-07-27T21:37:36.212Z,19.83
2018-07-27T21:40:05.136Z,19.40
2018-07-27T21:42:34.008Z,18.57
2018-07-27T21:45:02.857Z,20.07
2018-07-27T21:47:31.680Z,21.07
2018-07-27T21:50:00.471Z,20.40
2018-07-27T21:52:29.326Z,22.27
2018-07-27T21:54:58.222Z,21.73
2018-07-27T21:57:27.026Z,21.73
2018-07-27T21:59:55.826Z,21.00
2018-07-27T22:02:24.699Z,19.80
2018-07-27T22:04:53.642Z,21.90
2018-07-27T22:07:22.598Z,21.83
2018-07-27T22:09:52.841Z,19.07
2018-07-27T22:12:21.623Z,21.57
2018-07-27T22:14:50.435Z,25.20
2018-07-27T22:17:19.322Z,25.23
2018-07-27T22:19:48.288Z,23.80
2018-07-27T22:22:17.101Z,23.40
2018-07-27T22:24:45.933Z,23.17
2018-07-27T22:27:14.759Z,24.47
2018-07-27T22:29:43.638Z,23.60
2018-07-27T22:32:12.466Z,27.10
2018-07-27T22:34:41.295Z,29.30
2018-07-27T22:37:10.068Z,34.33
2018-07-27T22:39:38.860Z,31.67
2018-07-27T22:42:07.719Z,35.27
2018-07-27T22:44:36.480Z,37.27
2018-07-27T22:47:05.308Z,33.47
2018-07-27T22:49:34.119Z,36.90
2018-07-27T22:52:02.921Z,37.77
2018-07-27T22:54:32.090Z,36.67
2018-07-27T22:57:00.859Z,36.97
2018-07-27T22:59:29.658Z,38.77
2018-07-27T23:01:58.450Z,37.87
2018-07-27T23:04:27.465Z,36.43
2018-07-27T23:06:56.312Z,37.13
2018-07-27T23:09:25.114Z,34.83
2018-07-27T23:11:54.164Z,38.53
2018-07-27T23:14:22.986Z,42.60
2018-07-27T23:16:51.981Z,40.57
2018-07-27T23:19:20.764Z,40.50
2018-07-27T23:21:49.655Z,38.17
2018-07-27T23:24:18.708Z,38.10
2018-07-27T23:26:47.820Z,37.67
2018-07-27T23:29:16.635Z,35.03
2018-07-27T23:31:45.479Z,35.00
2018-07-27T23:34:14.234Z,28.30
2018-07-27T23:36:43.003Z,28.83
2018-07-27T23:39:14.610Z,29.73
2018-07-27T23:41:44.180Z,29.00
2018-07-27T23:44:12.963Z,28.90
2018-07-27T23:46:41.790Z,27.90
2018-07-27T23:49:10.630Z,33.57
2018-07-27T23:51:39.420Z,33.37
2018-07-27T23:54:08.319Z,31.87
2018-07-27T23:56:37.151Z,36.33
2018-07-27T23:59:05.951Z,34.83
